createdAt,value
2023-01-10T00:00:50.027Z,4.452515
2023-01-10T00:01:59.713Z,4.422302
2023-01-10T00:03:07.360Z,4.422302
2023-01-10T00:04:16.043Z,4.422302
2023-01-10T00:05:25.686Z,4.442444
2023-01-10T00:06:33.353Z,4.442444
2023-01-10T00:07:43.004Z,4.422302
2023-01-10T00:08:52.666Z,4.412231
2023-01-10T00:10:02.336Z,4.422302
2023-01-10T00:11:12.020Z,4.422302
2023-01-10T00:12:19.709Z,4.422302
2023-01-10T00:13:29.367Z,4.452515
2023-01-10T00:14:39.025Z,4.452515
2023-01-10T00:15:46.778Z,4.482727
2023-01-10T00:16:56.368Z,4.492798
2023-01-10T00:18:06.045Z,4.482727
2023-01-10T00:19:14.750Z,4.502869
2023-01-10T00:20:24.419Z,4.502869
2023-01-10T00:21:32.088Z,4.492798
2023-01-10T00:22:40.740Z,4.502869
2023-01-10T00:23:50.443Z,4.52301
2023-01-10T00:24:59.116Z,4.52301
2023-01-10T00:26:08.777Z,4.533081
2023-01-10T00:27:15.425Z,4.533081
2023-01-10T00:28:27.118Z,4.533081
2023-01-10T00:29:37.565Z,4.553223
2023-01-10T00:30:46.286Z,4.563293
2023-01-10T00:31:54.949Z,4.553223
2023-01-10T00:33:04.645Z,4.593506
2023-01-10T00:34:14.337Z,4.593506
2023-01-10T00:35:24.022Z,4.593506
2023-01-10T00:36:33.730Z,4.603577
2023-01-10T00:37:42.460Z,4.593506
2023-01-10T00:38:52.127Z,4.593506
2023-01-10T00:40:00.802Z,4.593506
2023-01-10T00:41:10.460Z,4.623718
2023-01-10T00:42:20.134Z,4.623718
2023-01-10T00:43:27.793Z,4.603577
2023-01-10T00:44:37.496Z,4.563293
2023-01-10T00:45:47.156Z,4.593506
2023-01-10T00:46:54.795Z,4.553223
2023-01-10T00:48:04.487Z,4.533081
2023-01-10T00:49:13.168Z,4.52301
2023-01-10T00:50:22.837Z,4.502869
2023-01-10T00:51:32.491Z,4.492798
2023-01-10T00:52:40.152Z,4.492798
2023-01-10T00:53:49.871Z,4.452515
2023-01-10T00:54:58.550Z,4.412231
2023-01-10T00:56:06.185Z,4.422302
2023-01-10T00:57:15.956Z,4.442444
2023-01-10T00:58:23.609Z,4.422302
2023-01-10T00:59:33.318Z,4.412231
2023-01-10T01:00:43.028Z,4.412231
2023-01-10T01:01:51.907Z,4.412231
2023-01-10T01:03:02.420Z,4.402161
2023-01-10T01:04:11.051Z,4.382019
2023-01-10T01:05:18.779Z,4.382019
2023-01-10T01:06:28.439Z,4.402161
2023-01-10T01:07:36.111Z,4.382019
2023-01-10T01:08:44.803Z,4.382019
2023-01-10T01:09:54.470Z,4.382019
2023-01-10T01:11:03.176Z,4.402161
2023-01-10T01:12:12.850Z,4.442444
2023-01-10T01:13:22.542Z,4.452515
2023-01-10T01:14:33.208Z,4.482727
2023-01-10T01:15:42.954Z,4.482727
2023-01-10T01:16:50.610Z,4.492798
2023-01-10T01:18:00.313Z,4.492798
2023-01-10T01:19:09.990Z,4.492798
2023-01-10T01:20:17.699Z,4.452515
2023-01-10T01:21:27.362Z,4.422302
2023-01-10T01:22:36.057Z,4.402161
2023-01-10T01:23:44.743Z,4.402161
2023-01-10T01:24:54.472Z,4.351807
2023-01-10T01:26:04.160Z,4.321594
2023-01-10T01:27:12.812Z,4.311523
2023-01-10T01:28:22.521Z,4.301453
2023-01-10T01:29:42.231Z,4.281311
2023-01-10T01:30:41.868Z,4.281311
2023-01-10T01:31:51.643Z,4.261169
2023-01-10T01:32:59.377Z,4.241028
2023-01-10T01:34:09.065Z,4.230957
2023-01-10T01:35:18.083Z,4.241028
2023-01-10T01:36:27.726Z,4.241028
2023-01-10T01:37:37.424Z,4.241028
2023-01-10T01:38:45.099Z,4.241028
2023-01-10T01:39:54.790Z,4.241028
2023-01-10T01:41:03.486Z,4.241028
2023-01-10T01:42:12.165Z,4.230957
2023-01-10T01:43:21.851Z,4.241028
2023-01-10T01:44:31.532Z,4.241028
2023-01-10T01:45:41.227Z,4.230957
2023-01-10T01:46:50.928Z,4.230957
2023-01-10T01:47:58.610Z,4.261169
2023-01-10T01:49:08.307Z,4.241028
2023-01-10T01:50:18.009Z,4.261169
2023-01-10T01:51:25.690Z,4.281311
2023-01-10T01:52:35.499Z,4.301453
2023-01-10T01:53:43.260Z,4.281311
2023-01-10T01:54:52.959Z,4.281311
2023-01-10T01:56:00.645Z,4.301453
2023-01-10T01:57:09.436Z,4.311523
2023-01-10T01:58:19.153Z,4.311523
2023-01-10T01:59:27.841Z,4.341736
2023-01-10T02:00:37.536Z,4.321594
2023-01-10T02:01:47.254Z,4.311523
2023-01-10T02:03:02.489Z,4.311523
2023-01-10T02:04:04.563Z,4.311523
2023-01-10T02:05:12.207Z,4.311523
2023-01-10T02:06:20.883Z,4.311523
2023-01-10T02:07:30.554Z,4.311523
2023-01-10T02:08:38.259Z,4.321594
2023-01-10T02:09:47.915Z,4.311523
2023-01-10T02:10:56.581Z,4.301453
2023-01-10T02:12:05.308Z,4.301453
2023-01-10T02:13:14.991Z,4.301453
2023-01-10T02:14:24.705Z,4.281311
2023-01-10T02:15:33.389Z,4.281311
2023-01-10T02:16:43.069Z,4.301453
2023-01-10T02:17:50.729Z,4.281311
2023-01-10T02:19:00.408Z,4.301453
2023-01-10T02:20:09.096Z,4.281311
2023-01-10T02:21:18.795Z,4.261169
2023-01-10T02:22:28.452Z,4.301453
2023-01-10T02:23:36.129Z,4.301453
2023-01-10T02:24:45.820Z,4.311523
2023-01-10T02:25:55.535Z,4.311523
2023-01-10T02:27:05.214Z,4.311523
2023-01-10T02:28:14.907Z,4.281311
2023-01-10T02:29:23.548Z,4.301453
2023-01-10T02:30:32.237Z,4.311523
2023-01-10T02:31:42.011Z,4.301453
2023-01-10T02:33:00.478Z,4.311523
2023-01-10T02:34:01.386Z,4.321594
2023-01-10T02:35:11.070Z,4.321594
2023-01-10T02:36:18.739Z,4.321594
2023-01-10T02:37:28.501Z,4.321594
2023-01-10T02:38:39.167Z,4.311523
2023-01-10T02:39:46.862Z,4.311523
2023-01-10T02:40:56.579Z,4.311523
2023-01-10T02:42:06.256Z,4.311523
2023-01-10T02:43:15.952Z,4.311523
2023-01-10T02:44:25.667Z,4.301453
2023-01-10T02:45:34.354Z,4.311523
2023-01-10T02:46:44.092Z,4.311523
2023-01-10T02:47:52.678Z,4.311523
2023-01-10T02:49:01.379Z,4.311523
2023-01-10T02:50:11.096Z,4.321594
2023-01-10T02:51:19.765Z,4.341736
2023-01-10T02:52:29.460Z,4.321594
2023-01-10T02:53:39.199Z,4.341736
2023-01-10T02:54:48.004Z,4.321594
2023-01-10T02:55:57.685Z,4.321594
2023-01-10T02:57:06.380Z,4.321594
2023-01-10T02:58:15.058Z,4.311523
2023-01-10T02:59:24.748Z,4.301453
2023-01-10T03:00:33.472Z,4.281311
2023-01-10T03:01:43.328Z,4.301453
2023-01-10T03:02:53.827Z,4.311523
2023-01-10T03:04:01.505Z,4.311523
2023-01-10T03:05:11.248Z,4.321594
2023-01-10T03:06:20.911Z,4.341736
2023-01-10T03:07:30.647Z,4.341736
2023-01-10T03:08:40.328Z,4.311523
2023-01-10T03:09:50.055Z,4.341736
2023-01-10T03:10:59.795Z,4.321594
2023-01-10T03:12:09.540Z,4.321594
2023-01-10T03:13:18.240Z,4.311523
2023-01-10T03:14:27.918Z,4.311523
2023-01-10T03:15:36.587Z,4.321594
2023-01-10T03:16:45.289Z,4.321594
2023-01-10T03:17:55.023Z,4.341736
2023-01-10T03:19:03.739Z,4.341736
2023-01-10T03:20:12.347Z,4.341736
2023-01-10T03:21:22.025Z,4.311523
2023-01-10T03:22:29.700Z,4.301453
2023-01-10T03:23:39.404Z,4.311523
2023-01-10T03:24:49.068Z,4.311523
2023-01-10T03:25:57.780Z,4.321594
2023-01-10T03:27:07.445Z,4.311523
2023-01-10T03:28:16.132Z,4.311523
2023-01-10T03:29:24.899Z,4.321594
2023-01-10T03:30:34.579Z,4.351807
2023-01-10T03:31:43.298Z,4.371948
2023-01-10T03:32:52.926Z,4.351807
2023-01-10T03:34:02.622Z,4.351807
2023-01-10T03:35:11.306Z,4.351807
2023-01-10T03:36:21.003Z,4.341736
2023-01-10T03:37:29.721Z,4.371948
2023-01-10T03:38:38.415Z,4.371948
2023-01-10T03:39:48.118Z,4.371948
2023-01-10T03:40:55.848Z,4.371948
2023-01-10T03:42:05.535Z,4.402161
2023-01-10T03:43:15.202Z,4.371948
2023-01-10T03:44:22.895Z,4.382019
2023-01-10T03:45:32.577Z,4.382019
2023-01-10T03:46:40.294Z,4.412231
2023-01-10T03:47:49.980Z,4.412231
2023-01-10T03:48:59.680Z,4.402161
2023-01-10T03:50:08.353Z,4.402161
2023-01-10T03:51:18.029Z,4.412231
2023-01-10T03:52:26.726Z,4.422302
2023-01-10T03:53:36.417Z,4.422302
2023-01-10T03:54:45.084Z,4.442444
2023-01-10T03:55:53.756Z,4.442444
2023-01-10T03:57:03.467Z,4.422302
2023-01-10T03:58:11.239Z,4.442444
2023-01-10T03:59:20.885Z,4.442444
2023-01-10T04:00:30.623Z,4.452515
2023-01-10T04:01:38.371Z,4.482727
2023-01-10T04:02:48.077Z,4.452515
2023-01-10T04:03:56.818Z,4.492798
2023-01-10T04:05:05.440Z,4.492798
2023-01-10T04:06:15.137Z,4.502869
2023-01-10T04:07:24.839Z,4.502869
2023-01-10T04:08:34.535Z,4.492798
2023-01-10T04:09:44.254Z,4.452515
2023-01-10T04:10:53.021Z,4.482727
2023-01-10T04:12:01.724Z,4.442444
2023-01-10T04:13:11.410Z,4.452515
2023-01-10T04:14:20.128Z,4.442444
2023-01-10T04:15:29.833Z,4.442444
2023-01-10T04:16:38.515Z,4.442444
2023-01-10T04:17:47.194Z,4.452515
2023-01-10T04:18:56.913Z,4.452515
2023-01-10T04:20:05.593Z,4.452515
2023-01-10T04:21:15.323Z,4.482727
2023-01-10T04:22:23.988Z,4.452515
2023-01-10T04:23:32.699Z,4.482727
2023-01-10T04:24:42.424Z,4.452515
2023-01-10T04:25:51.162Z,4.482727
2023-01-10T04:26:59.858Z,4.502869
2023-01-10T04:28:09.568Z,4.502869
2023-01-10T04:29:17.245Z,4.533081
2023-01-10T04:30:26.977Z,4.533081
2023-01-10T04:31:36.666Z,4.533081
2023-01-10T04:32:45.346Z,4.553223
2023-01-10T04:33:55.028Z,4.563293
2023-01-10T04:35:03.706Z,4.553223
2023-01-10T04:36:12.379Z,4.583435
2023-01-10T04:37:22.052Z,4.563293
2023-01-10T04:38:30.741Z,4.553223
2023-01-10T04:39:40.431Z,4.583435
2023-01-10T04:40:49.099Z,4.583435
2023-01-10T04:41:56.828Z,4.583435
2023-01-10T04:43:06.511Z,4.583435
2023-01-10T04:44:16.217Z,4.583435
2023-01-10T04:45:25.969Z,4.563293
2023-01-10T04:46:35.577Z,4.533081
2023-01-10T04:47:44.224Z,4.533081
2023-01-10T04:48:53.906Z,4.52301
2023-01-10T04:50:03.664Z,4.533081
2023-01-10T04:51:12.278Z,4.533081
2023-01-10T04:52:21.961Z,4.502869
2023-01-10T04:53:30.629Z,4.52301
2023-01-10T04:54:40.322Z,4.533081
2023-01-10T04:55:50.036Z,4.52301
2023-01-10T04:56:57.686Z,4.533081
2023-01-10T04:58:07.363Z,4.492798
2023-01-10T04:59:16.043Z,4.492798
2023-01-10T05:00:24.722Z,4.442444
2023-01-10T05:01:34.414Z,4.402161
2023-01-10T05:02:43.186Z,4.382019
2023-01-10T05:03:53.738Z,4.371948
2023-01-10T05:05:03.425Z,4.311523
2023-01-10T05:06:11.085Z,4.321594
2023-01-10T05:07:20.767Z,4.311523
2023-01-10T05:08:30.461Z,4.301453
2023-01-10T05:09:38.112Z,4.261169
2023-01-10T05:10:47.811Z,4.241028
2023-01-10T05:11:55.507Z,4.220886
2023-01-10T05:13:04.332Z,4.14032
2023-01-10T05:14:13.984Z,4.079895
2023-01-10T05:15:23.690Z,4.039612
2023-01-10T05:16:33.385Z,4.009399
2023-01-10T05:17:43.074Z,4.01947
2023-01-10T05:18:51.804Z,4.01947
2023-01-10T05:20:01.460Z,4.01947
2023-01-10T05:21:09.132Z,4.049683
2023-01-10T05:22:18.813Z,4.049683
2023-01-10T05:23:28.494Z,4.049683
2023-01-10T05:24:37.179Z,4.049683
2023-01-10T05:25:46.843Z,4.079895
2023-01-10T05:26:56.525Z,4.059753
2023-01-10T05:28:05.188Z,4.049683
2023-01-10T05:29:14.893Z,4.059753
2023-01-10T05:30:24.578Z,4.059753
2023-01-10T05:31:34.300Z,4.049683
2023-01-10T05:32:43.928Z,4.059753
2023-01-10T05:33:51.608Z,4.059753
2023-01-10T05:35:01.332Z,4.059753
2023-01-10T05:36:09.995Z,4.100037
2023-01-10T05:37:17.704Z,4.100037
2023-01-10T05:38:27.412Z,4.100037
2023-01-10T05:39:36.108Z,4.120178
2023-01-10T05:40:44.768Z,4.120178
2023-01-10T05:41:54.522Z,4.120178
2023-01-10T05:43:02.215Z,4.120178
2023-01-10T05:44:13.108Z,4.14032
2023-01-10T05:45:21.615Z,4.130249
2023-01-10T05:46:30.333Z,4.130249
2023-01-10T05:47:40.065Z,4.130249
2023-01-10T05:48:47.722Z,4.130249
2023-01-10T05:49:57.416Z,4.14032
2023-01-10T05:51:06.137Z,4.130249
2023-01-10T05:52:14.774Z,4.130249
2023-01-10T05:53:24.465Z,4.130249
2023-01-10T05:54:33.125Z,4.120178
2023-01-10T05:55:42.827Z,4.14032
2023-01-10T05:56:51.551Z,4.14032
2023-01-10T05:57:59.226Z,4.14032
2023-01-10T05:59:17.166Z,4.160461
2023-01-10T06:00:18.607Z,4.160461
2023-01-10T06:01:27.283Z,4.170532
2023-01-10T06:02:37.079Z,4.160461
2023-01-10T06:03:45.651Z,4.170532
2023-01-10T06:04:55.377Z,4.190674
2023-01-10T06:06:05.046Z,4.170532
2023-01-10T06:07:13.839Z,4.190674
2023-01-10T06:08:23.461Z,4.170532
2023-01-10T06:09:32.129Z,4.170532
2023-01-10T06:10:42.204Z,4.170532
2023-01-10T06:11:50.476Z,4.170532
2023-01-10T06:12:59.161Z,4.170532
2023-01-10T06:14:08.853Z,4.200745
2023-01-10T06:15:17.536Z,4.200745
2023-01-10T06:16:25.269Z,4.200745
2023-01-10T06:17:35.000Z,4.200745
2023-01-10T06:18:44.696Z,4.220886
2023-01-10T06:19:53.363Z,4.230957
2023-01-10T06:21:03.088Z,4.230957
2023-01-10T06:22:10.770Z,4.220886
2023-01-10T06:23:20.471Z,4.220886
2023-01-10T06:24:30.143Z,4.230957
2023-01-10T06:25:38.840Z,4.220886
2023-01-10T06:26:48.523Z,4.241028
2023-01-10T06:27:56.257Z,4.230957
2023-01-10T06:29:04.948Z,4.241028
2023-01-10T06:30:14.713Z,4.230957
2023-01-10T06:31:24.458Z,4.241028
2023-01-10T06:32:34.104Z,4.261169
2023-01-10T06:33:42.836Z,4.241028
2023-01-10T06:34:51.544Z,4.261169
2023-01-10T06:36:01.245Z,4.241028
2023-01-10T06:37:10.920Z,4.261169
2023-01-10T06:38:20.574Z,4.230957
2023-01-10T06:39:30.359Z,4.261169
2023-01-10T06:40:39.046Z,4.241028
2023-01-10T06:41:48.728Z,4.261169
2023-01-10T06:42:58.439Z,4.281311
2023-01-10T06:44:07.096Z,4.281311
2023-01-10T06:45:16.812Z,4.301453
2023-01-10T06:46:25.508Z,4.301453
2023-01-10T06:47:34.194Z,4.311523
2023-01-10T06:48:43.921Z,4.311523
2023-01-10T06:49:52.620Z,4.321594
2023-01-10T06:51:02.373Z,4.321594
2023-01-10T06:52:11.092Z,4.351807
2023-01-10T06:53:19.790Z,4.351807
2023-01-10T06:54:29.478Z,4.341736
2023-01-10T06:55:39.199Z,4.311523
2023-01-10T06:56:48.871Z,4.301453
2023-01-10T06:57:58.536Z,4.281311
2023-01-10T06:59:08.341Z,4.241028
2023-01-10T07:00:15.935Z,4.220886
2023-01-10T07:01:24.707Z,4.220886
2023-01-10T07:02:33.313Z,4.190674
2023-01-10T07:03:43.049Z,4.170532
2023-01-10T07:04:50.735Z,4.160461
2023-01-10T07:06:00.427Z,4.130249
2023-01-10T07:07:10.123Z,4.130249
2023-01-10T07:08:18.816Z,4.130249
2023-01-10T07:09:28.511Z,4.120178
2023-01-10T07:10:38.214Z,4.120178
2023-01-10T07:11:46.902Z,4.100037
2023-01-10T07:12:56.579Z,4.059753
2023-01-10T07:14:05.265Z,4.059753
2023-01-10T07:15:13.980Z,4.059753
2023-01-10T07:16:23.667Z,4.049683
2023-01-10T07:17:32.351Z,4.049683
2023-01-10T07:18:42.060Z,4.049683
2023-01-10T07:19:51.777Z,4.079895
2023-01-10T07:21:01.482Z,4.079895
2023-01-10T07:22:11.169Z,4.100037
2023-01-10T07:23:18.923Z,4.120178
2023-01-10T07:24:27.545Z,4.100037
2023-01-10T07:25:37.253Z,4.120178
2023-01-10T07:26:44.959Z,4.130249
2023-01-10T07:27:54.689Z,4.120178
2023-01-10T07:29:05.119Z,4.130249
2023-01-10T07:30:13.803Z,4.130249
2023-01-10T07:31:24.707Z,4.120178
2023-01-10T07:32:32.198Z,4.100037
2023-01-10T07:33:42.881Z,4.120178
2023-01-10T07:34:52.564Z,4.120178
2023-01-10T07:36:02.242Z,4.130249
2023-01-10T07:37:11.939Z,4.130249
2023-01-10T07:38:20.610Z,4.130249
2023-01-10T07:39:30.299Z,4.120178
2023-01-10T07:40:39.969Z,4.14032
2023-01-10T07:41:49.679Z,4.14032
2023-01-10T07:42:58.428Z,4.130249
2023-01-10T07:44:08.099Z,4.14032
2023-01-10T07:45:15.752Z,4.170532
2023-01-10T07:46:25.549Z,4.160461
2023-01-10T07:47:34.112Z,4.170532
2023-01-10T07:48:43.828Z,4.200745
2023-01-10T07:49:52.541Z,4.200745
2023-01-10T07:51:00.234Z,4.200745
2023-01-10T07:52:09.933Z,4.190674
2023-01-10T07:53:18.643Z,4.190674
2023-01-10T07:54:27.357Z,4.190674
2023-01-10T07:55:37.063Z,4.190674
2023-01-10T07:56:45.799Z,4.200745
2023-01-10T07:57:55.530Z,4.220886
2023-01-10T07:59:05.251Z,4.220886
2023-01-10T08:00:12.910Z,4.230957
2023-01-10T08:01:22.685Z,4.220886
2023-01-10T08:02:32.369Z,4.241028
2023-01-10T08:03:41.111Z,4.261169
2023-01-10T08:04:50.663Z,4.230957
2023-01-10T08:05:59.434Z,4.241028
2023-01-10T08:07:09.122Z,4.261169
2023-01-10T08:08:17.841Z,4.301453
2023-01-10T08:09:25.551Z,4.301453
2023-01-10T08:10:35.237Z,4.301453
2023-01-10T08:11:43.944Z,4.301453
2023-01-10T08:12:52.680Z,4.311523
2023-01-10T08:14:03.333Z,4.321594
2023-01-10T08:15:12.045Z,4.321594
2023-01-10T08:16:21.732Z,4.341736
2023-01-10T08:17:30.488Z,4.341736
2023-01-10T08:18:39.209Z,4.321594
2023-01-10T08:19:48.904Z,4.301453
2023-01-10T08:20:57.615Z,4.311523
2023-01-10T08:22:07.309Z,4.341736
2023-01-10T08:23:17.076Z,4.341736
2023-01-10T08:24:25.765Z,4.341736
2023-01-10T08:25:35.521Z,4.321594
2023-01-10T08:26:44.146Z,4.321594
2023-01-10T08:27:52.854Z,4.351807
2023-01-10T08:29:02.581Z,4.351807
2023-01-10T08:30:11.310Z,4.351807
2023-01-10T08:31:20.196Z,4.371948
2023-01-10T08:32:29.720Z,4.351807
2023-01-10T08:33:38.384Z,4.351807
2023-01-10T08:34:48.129Z,4.351807
2023-01-10T08:35:56.801Z,4.382019
2023-01-10T08:37:06.500Z,4.402161
2023-01-10T08:38:16.166Z,4.371948
2023-01-10T08:39:25.873Z,4.371948
2023-01-10T08:40:34.547Z,4.351807
2023-01-10T08:41:44.226Z,4.351807
2023-01-10T08:42:52.900Z,4.321594
2023-01-10T08:44:02.567Z,4.341736
2023-01-10T08:45:12.227Z,4.341736
2023-01-10T08:46:21.074Z,4.351807
2023-01-10T08:47:30.621Z,4.371948
2023-01-10T08:48:41.703Z,4.371948
2023-01-10T08:49:51.381Z,4.402161
2023-01-10T08:51:02.042Z,4.412231
2023-01-10T08:52:10.752Z,4.422302
2023-01-10T08:53:20.419Z,4.422302
2023-01-10T08:54:29.110Z,4.452515
2023-01-10T08:55:37.820Z,4.482727
2023-01-10T08:56:47.491Z,4.482727
2023-01-10T08:57:56.205Z,4.502869
2023-01-10T08:59:05.908Z,4.482727
2023-01-10T09:00:15.597Z,4.492798
2023-01-10T09:01:23.331Z,4.52301
2023-01-10T09:02:31.997Z,4.533081
2023-01-10T09:03:40.670Z,4.583435
2023-01-10T09:04:50.336Z,4.583435
2023-01-10T09:06:00.008Z,4.593506
2023-01-10T09:07:07.729Z,4.593506
2023-01-10T09:08:16.398Z,4.623718
2023-01-10T09:09:26.147Z,4.623718
2023-01-10T09:10:33.840Z,4.674072
2023-01-10T09:11:43.505Z,4.674072
2023-01-10T09:12:53.195Z,4.684143
2023-01-10T09:14:02.929Z,4.664001
2023-01-10T09:15:12.622Z,4.623718
2023-01-10T09:16:21.350Z,4.603577
2023-01-10T09:17:31.998Z,4.623718
2023-01-10T09:18:41.662Z,4.593506
2023-01-10T09:19:49.353Z,4.623718
2023-01-10T09:20:59.031Z,4.623718
2023-01-10T09:22:07.689Z,4.593506
2023-01-10T09:23:16.367Z,4.583435
2023-01-10T09:24:26.030Z,4.563293
2023-01-10T09:25:33.685Z,4.533081
2023-01-10T09:26:43.362Z,4.442444
2023-01-10T09:27:53.035Z,4.371948
2023-01-10T09:29:01.706Z,4.281311
2023-01-10T09:30:11.373Z,4.079895
2023-01-10T09:31:21.136Z,3.908691
2023-01-10T09:32:29.783Z,3.838196
2023-01-10T09:33:46.533Z,3.807983
2023-01-10T09:34:49.187Z,3.828125
2023-01-10T09:35:58.885Z,3.737488
2023-01-10T09:37:09.586Z,3.727417
2023-01-10T09:38:18.315Z,3.737488
2023-01-10T09:39:27.980Z,3.7677
2023-01-10T09:40:36.639Z,3.797913
2023-01-10T09:41:44.304Z,3.858337
2023-01-10T09:42:53.975Z,3.908691
2023-01-10T09:44:03.769Z,3.989258
2023-01-10T09:45:13.420Z,4.079895
2023-01-10T09:46:22.110Z,4.130249
2023-01-10T09:47:30.819Z,4.200745
2023-01-10T09:48:40.520Z,4.220886
2023-01-10T09:49:48.237Z,4.230957
2023-01-10T09:50:57.910Z,4.241028
2023-01-10T09:52:07.655Z,4.220886
2023-01-10T09:53:16.334Z,4.220886
2023-01-10T09:54:26.161Z,4.241028
2023-01-10T09:55:35.847Z,4.311523
2023-01-10T09:56:44.499Z,4.351807
2023-01-10T09:57:54.167Z,4.402161
2023-01-10T09:59:01.810Z,4.371948
2023-01-10T10:00:11.498Z,4.382019
2023-01-10T10:01:20.232Z,4.412231
2023-01-10T10:02:27.849Z,4.402161
2023-01-10T10:03:39.627Z,4.402161
2023-01-10T10:04:47.193Z,4.422302
2023-01-10T10:06:07.276Z,4.502869
2023-01-10T10:07:07.600Z,4.533081
2023-01-10T10:08:16.290Z,4.623718
2023-01-10T10:09:25.969Z,4.664001
2023-01-10T10:10:35.661Z,4.684143
2023-01-10T10:11:44.325Z,4.734497
2023-01-10T10:12:54.016Z,4.804993
2023-01-10T10:14:02.685Z,4.956055
2023-01-10T10:15:11.363Z,5.066833
2023-01-10T10:16:21.130Z,5.137329
2023-01-10T10:17:28.705Z,5.288391
2023-01-10T10:18:38.415Z,5.298462
2023-01-10T10:19:47.063Z,5.379028
2023-01-10T10:20:54.785Z,5.499878
2023-01-10T10:22:04.454Z,5.65094
2023-01-10T10:23:13.126Z,5.721436
2023-01-10T10:24:21.835Z,5.90271
2023-01-10T10:25:31.480Z,6.02356
2023-01-10T10:26:39.174Z,6.124268
2023-01-10T10:27:49.722Z,6.174622
2023-01-10T10:28:58.386Z,6.114197
2023-01-10T10:30:07.078Z,6.053772
2023-01-10T10:31:16.771Z,5.983276
2023-01-10T10:32:24.459Z,5.993347
2023-01-10T10:33:34.121Z,5.842285
2023-01-10T10:34:43.793Z,5.872498
2023-01-10T10:35:52.494Z,5.872498
2023-01-10T10:37:02.141Z,5.932922
2023-01-10T10:38:10.791Z,6.013489
2023-01-10T10:39:19.466Z,6.053772
2023-01-10T10:40:29.182Z,6.02356
2023-01-10T10:41:38.858Z,6.204834
2023-01-10T10:42:47.532Z,6.436462
2023-01-10T10:43:57.230Z,6.65802
2023-01-10T10:45:05.948Z,6.668091
2023-01-10T10:46:15.667Z,6.718445
2023-01-10T10:47:25.323Z,6.950073
2023-01-10T10:48:32.967Z,7.29248
2023-01-10T10:49:42.640Z,7.393188
2023-01-10T10:50:52.322Z,7.181702
2023-01-10T10:52:00.990Z,7.171631
2023-01-10T10:53:11.679Z,7.151489
2023-01-10T10:54:19.422Z,7.101135
2023-01-10T10:55:29.057Z,7.000427
2023-01-10T10:56:38.809Z,6.889648
2023-01-10T10:57:59.242Z,6.78894
2023-01-10T10:58:58.069Z,6.718445
2023-01-10T11:00:06.752Z,6.567383
2023-01-10T11:01:16.656Z,6.597595
2023-01-10T11:02:27.165Z,6.53717
2023-01-10T11:03:35.842Z,6.637878
2023-01-10T11:04:45.563Z,6.688232
2023-01-10T11:05:55.185Z,6.668091
2023-01-10T11:07:02.869Z,6.65802
2023-01-10T11:08:12.570Z,6.597595
2023-01-10T11:09:21.446Z,6.486816
2023-01-10T11:10:31.389Z,6.446533
2023-01-10T11:11:41.250Z,6.486816
2023-01-10T11:12:51.285Z,6.557312
2023-01-10T11:14:01.165Z,6.506958
2023-01-10T11:15:10.079Z,6.376038
2023-01-10T11:16:20.106Z,6.295471
2023-01-10T11:17:29.996Z,6.386108
2023-01-10T11:18:38.675Z,6.376038
2023-01-10T11:19:47.363Z,6.386108
2023-01-10T11:20:57.042Z,6.194763
2023-01-10T11:22:04.942Z,6.124268
2023-01-10T11:23:14.635Z,6.013489
2023-01-10T11:24:23.319Z,6.02356
2023-01-10T11:25:33.006Z,5.993347
2023-01-10T11:26:42.713Z,5.973206
2023-01-10T11:27:50.422Z,5.973206
2023-01-10T11:29:00.152Z,5.973206
2023-01-10T11:30:08.822Z,6.02356
2023-01-10T11:31:18.475Z,6.053772
2023-01-10T11:32:28.143Z,6.083984
2023-01-10T11:33:37.867Z,6.053772
2023-01-10T11:34:46.556Z,6.043701
2023-01-10T11:35:56.241Z,6.043701
2023-01-10T11:37:04.962Z,6.043701
2023-01-10T11:38:14.631Z,6.053772
2023-01-10T11:39:24.336Z,6.013489
2023-01-10T11:40:33.043Z,5.973206
2023-01-10T11:41:42.728Z,5.973206
2023-01-10T11:42:52.406Z,5.912781
2023-01-10T11:44:02.107Z,5.892639
2023-01-10T11:45:10.783Z,5.90271
2023-01-10T11:46:19.508Z,5.983276
2023-01-10T11:47:29.925Z,5.912781
2023-01-10T11:49:03.536Z,5.892639
2023-01-10T11:49:50.429Z,5.892639
2023-01-10T11:51:00.130Z,5.892639
2023-01-10T11:52:08.801Z,5.832214
2023-01-10T11:53:18.507Z,5.791931
2023-01-10T11:54:26.183Z,5.751648
2023-01-10T11:55:33.843Z,5.721436
2023-01-10T11:56:43.693Z,5.681152
2023-01-10T11:57:52.248Z,5.661011
2023-01-10T11:59:01.938Z,5.640869
2023-01-10T12:00:11.668Z,5.681152
2023-01-10T12:01:20.440Z,5.691223
2023-01-10T12:02:30.101Z,5.661011
2023-01-10T12:03:38.720Z,5.65094
2023-01-10T12:04:47.400Z,5.620728
2023-01-10T12:05:57.100Z,5.661011
2023-01-10T12:07:07.937Z,5.711365
2023-01-10T12:08:15.457Z,5.751648
2023-01-10T12:09:25.140Z,5.791931
2023-01-10T12:10:34.852Z,5.832214
2023-01-10T12:11:44.486Z,5.872498
2023-01-10T12:12:53.180Z,5.90271
2023-01-10T12:14:02.867Z,5.912781
2023-01-10T12:15:12.514Z,5.872498
2023-01-10T12:16:21.276Z,5.872498
2023-01-10T12:17:30.974Z,5.912781
2023-01-10T12:18:40.630Z,5.932922
2023-01-10T12:19:49.338Z,6.02356
2023-01-10T12:20:59.034Z,6.144409
2023-01-10T12:22:08.687Z,6.255188
2023-01-10T12:23:17.400Z,6.27533
2023-01-10T12:24:27.192Z,6.325684
2023-01-10T12:25:36.905Z,6.386108
2023-01-10T12:26:45.567Z,6.416321
2023-01-10T12:27:55.266Z,6.436462
2023-01-10T12:29:03.973Z,6.386108
2023-01-10T12:30:13.624Z,6.376038
2023-01-10T12:31:23.361Z,6.355896
2023-01-10T12:32:31.036Z,6.325684
2023-01-10T12:33:40.761Z,6.456604
2023-01-10T12:34:50.422Z,6.668091
2023-01-10T12:36:00.078Z,6.688232
2023-01-10T12:37:09.783Z,6.637878
2023-01-10T12:38:18.453Z,6.597595
2023-01-10T12:39:28.126Z,6.486816
2023-01-10T12:40:37.792Z,6.506958
2023-01-10T12:41:45.492Z,6.476746
2023-01-10T12:42:55.183Z,6.617737
2023-01-10T12:44:03.883Z,6.77887
2023-01-10T12:45:13.602Z,7.111206
2023-01-10T12:46:38.406Z,7.29248
2023-01-10T12:47:34.001Z,7.232056
2023-01-10T12:48:43.646Z,7.171631
2023-01-10T12:49:53.306Z,7.101135
2023-01-10T12:51:00.994Z,6.990356
2023-01-10T12:52:10.670Z,6.950073
2023-01-10T12:53:18.392Z,6.889648
2023-01-10T12:54:28.096Z,6.879578
2023-01-10T12:55:37.804Z,6.768799
2023-01-10T12:56:47.442Z,6.668091
2023-01-10T12:57:57.175Z,6.627808
2023-01-10T12:59:05.800Z,6.597595
2023-01-10T13:00:15.515Z,6.617737
2023-01-10T13:01:25.320Z,6.65802
2023-01-10T13:02:32.993Z,6.718445
2023-01-10T13:03:42.574Z,6.688232
2023-01-10T13:04:52.267Z,6.668091
2023-01-10T13:06:01.960Z,6.668091
2023-01-10T13:07:11.601Z,6.627808
2023-01-10T13:08:20.380Z,6.617737
2023-01-10T13:09:29.053Z,6.557312
2023-01-10T13:10:38.724Z,6.557312
2023-01-10T13:11:46.692Z,6.486816
2023-01-10T13:12:56.362Z,6.506958
2023-01-10T13:14:06.097Z,6.517029
2023-01-10T13:15:13.785Z,6.53717
2023-01-10T13:16:23.445Z,6.587524
2023-01-10T13:17:33.151Z,6.617737
2023-01-10T13:18:42.910Z,6.627808
2023-01-10T13:19:51.578Z,6.567383
2023-01-10T13:21:00.339Z,6.567383
2023-01-10T13:22:08.976Z,6.597595
2023-01-10T13:23:18.673Z,6.627808
2023-01-10T13:24:26.387Z,6.627808
2023-01-10T13:25:36.037Z,6.698303
2023-01-10T13:26:43.671Z,6.77887
2023-01-10T13:27:51.393Z,6.960144
2023-01-10T13:29:01.081Z,6.929932
2023-01-10T13:30:09.754Z,7.020569
2023-01-10T13:31:19.421Z,7.201843
2023-01-10T13:32:29.113Z,7.383118
2023-01-10T13:33:38.948Z,7.433472